Terminal Aerodrome Forecast
Issued by NWS Wichita, KS

Home | Current Version | Previous Version | Graphics & Text | Print | Product List | Glossary On
Versions: 1 2 3 4 5 6 7 8 9 10 11 12
000
FTUS43 KICT 102338
TAFICT
TAF
KICT 102338Z 1100/1124 27006KT P6SM FEW250
     FM111500 31013KT P6SM SCT250
     FM111700 33020G28KT P6SM SCT250=

USA.gov is the U.S. government's official web portal to all federal, state and local government web resources and services.